createdAt,value
2023-10-02T00:03:58.418Z,16.21
2023-10-02T00:09:01.456Z,16.23
2023-10-02T00:14:05.076Z,16.27
2023-10-02T00:19:06.597Z,16.28
2023-10-02T00:24:09.809Z,16.27
2023-10-02T00:29:11.350Z,16.28
2023-10-02T00:34:13.219Z,16.28
2023-10-02T00:39:16.490Z,16.25
2023-10-02T00:44:18.039Z,16.24
2023-10-02T00:49:20.147Z,16.26
2023-10-02T00:54:23.270Z,16.25
2023-10-02T00:59:24.892Z,16.21
2023-10-02T01:04:26.474Z,16.20
2023-10-02T01:09:30.570Z,16.17
2023-10-02T01:14:33.213Z,16.13
2023-10-02T01:19:36.665Z,16.09
2023-10-02T01:24:40.336Z,15.99
2023-10-02T01:29:42.201Z,15.91
2023-10-02T01:34:43.737Z,15.86
2023-10-02T01:39:46.701Z,15.79
2023-10-02T01:44:48.387Z,15.76
2023-10-02T01:49:49.938Z,15.70
2023-10-02T01:54:52.823Z,15.62
2023-10-02T01:59:54.570Z,15.60
2023-10-02T02:04:57.280Z,15.58
2023-10-02T02:10:00.212Z,15.52
2023-10-02T02:15:01.847Z,15.46
2023-10-02T02:20:04.190Z,15.41
2023-10-02T02:25:08.004Z,15.40
2023-10-02T02:30:10.357Z,15.39
2023-10-02T02:35:12.343Z,15.41
2023-10-02T02:40:15.244Z,15.36
2023-10-02T02:45:16.914Z,15.35
2023-10-02T02:50:18.440Z,15.34
2023-10-02T02:55:21.359Z,15.30
2023-10-02T03:00:23.021Z,15.30
2023-10-02T03:05:25.546Z,15.29
2023-10-02T03:10:28.765Z,15.31
2023-10-02T03:15:33.026Z,15.29
2023-10-02T03:20:36.640Z,15.30
2023-10-02T03:25:39.586Z,15.18
2023-10-02T03:30:41.176Z,15.05
2023-10-02T03:35:42.780Z,14.99
2023-10-02T03:40:45.679Z,14.89
2023-10-02T03:45:47.437Z,14.81
2023-10-02T03:50:48.967Z,14.75
2023-10-02T03:55:59.490Z,14.82
2023-10-02T04:01:01.151Z,14.85
2023-10-02T04:06:03.087Z,14.84
2023-10-02T04:11:06.029Z,14.85
2023-10-02T04:16:07.658Z,14.89
2023-10-02T04:21:09.505Z,14.86
2023-10-02T04:26:16.734Z,14.84
2023-10-02T04:31:18.372Z,14.86
2023-10-02T04:36:20.228Z,14.79
2023-10-02T04:41:23.374Z,14.70
2023-10-02T04:46:27.582Z,14.55
2023-10-02T04:51:29.278Z,14.49
2023-10-02T04:56:32.269Z,14.41
2023-10-02T05:01:33.949Z,14.27
2023-10-02T05:06:35.873Z,14.23
2023-10-02T05:11:38.768Z,14.12
2023-10-02T05:16:41.129Z,14.18
2023-10-02T05:21:42.755Z,14.11
2023-10-02T05:26:46.731Z,14.22
2023-10-02T05:31:48.856Z,14.15
2023-10-02T05:36:50.576Z,14.11
2023-10-02T05:41:53.451Z,14.14
2023-10-02T05:46:55.180Z,14.17
2023-10-02T05:51:56.861Z,14.41
2023-10-02T05:57:00.199Z,14.52
2023-10-02T06:02:01.827Z,14.55
2023-10-02T06:07:03.565Z,14.61
2023-10-02T06:12:07.282Z,14.77
2023-10-02T06:17:09.412Z,14.87
2023-10-02T06:22:12.372Z,14.91
2023-10-02T06:27:15.581Z,14.92
2023-10-02T06:32:17.930Z,14.85
2023-10-02T06:37:21.213Z,15.02
2023-10-02T06:42:24.430Z,15.12
2023-10-02T06:47:28.059Z,15.32
2023-10-02T06:52:30.476Z,15.47
2023-10-02T06:57:33.327Z,15.75
2023-10-02T07:02:35.011Z,15.95
2023-10-02T07:07:36.690Z,16.05
2023-10-02T07:12:39.583Z,16.25
2023-10-02T07:17:41.857Z,16.50
2023-10-02T07:22:43.575Z,16.84
2023-10-02T07:27:46.731Z,17.07
2023-10-02T07:32:48.392Z,17.32
2023-10-02T07:37:50.348Z,17.55
2023-10-02T07:42:53.516Z,17.66
2023-10-02T07:47:55.170Z,17.94
2023-10-02T07:52:56.777Z,18.12
2023-10-02T07:57:59.946Z,18.31
2023-10-02T08:03:01.607Z,18.59
2023-10-02T08:08:03.318Z,18.74
2023-10-02T08:13:06.733Z,18.70
2023-10-02T08:18:08.374Z,18.70
2023-10-02T08:23:12.589Z,18.80
2023-10-02T08:28:15.524Z,18.92
2023-10-02T08:33:37.738Z,19.09
2023-10-02T08:38:38.725Z,19.39
2023-10-02T08:43:41.579Z,19.37
2023-10-02T08:48:43.185Z,19.57
2023-10-02T08:53:44.887Z,19.85
2023-10-02T08:58:48.490Z,20.04
2023-10-02T09:03:51.880Z,20.32
2023-10-02T09:08:54.009Z,20.44
2023-10-02T09:14:02.058Z,20.61
2023-10-02T09:19:03.708Z,20.95
2023-10-02T09:24:18.995Z,21.22
2023-10-02T09:29:21.938Z,21.15
2023-10-02T09:34:37.034Z,21.29
2023-10-02T09:39:45.490Z,21.44
2023-10-02T09:44:51.285Z,21.53
2023-10-02T09:49:57.287Z,21.97
2023-10-02T09:55:03.842Z,22.04
2023-10-02T10:00:10.918Z,22.24
2023-10-02T10:05:13.275Z,22.25
2023-10-02T10:10:27.535Z,22.36
2023-10-02T10:15:30.494Z,22.46
2023-10-02T10:20:32.074Z,22.50
2023-10-02T10:25:44.001Z,22.55
2023-10-02T10:30:51.122Z,22.74
2023-10-02T10:35:53.140Z,22.73
2023-10-02T10:40:54.941Z,22.81
2023-10-02T10:45:59.861Z,22.77
2023-10-02T10:51:09.960Z,22.69
2023-10-02T10:56:11.619Z,22.69
2023-10-02T11:01:15.677Z,22.83
2023-10-02T11:06:17.384Z,22.83
2023-10-02T11:11:26.484Z,22.81
2023-10-02T11:16:34.647Z,22.78
2023-10-02T11:21:36.331Z,22.72
2023-10-02T11:26:37.838Z,22.76
2023-10-02T11:31:40.962Z,22.80
2023-10-02T11:36:43.540Z,22.80
2023-10-02T11:41:45.252Z,22.77
2023-10-02T11:46:48.613Z,22.94
2023-10-02T11:51:50.326Z,22.91
2023-10-02T11:56:51.920Z,22.91
2023-10-02T12:01:55.158Z,22.97
2023-10-02T12:06:57.188Z,23.01
2023-10-02T12:11:58.836Z,23.18
2023-10-02T12:17:01.818Z,23.24
2023-10-02T12:22:08.775Z,23.22
2023-10-02T12:27:11.289Z,23.26
2023-10-02T12:32:14.241Z,23.30
2023-10-02T12:37:15.809Z,23.36
2023-10-02T12:42:18.629Z,23.40
2023-10-02T12:47:21.883Z,23.47
2023-10-02T12:52:23.538Z,23.48
2023-10-02T12:57:25.223Z,23.54
2023-10-02T13:02:28.562Z,23.50
2023-10-02T13:07:30.211Z,23.49
2023-10-02T13:12:31.755Z,23.52
2023-10-02T13:17:34.787Z,23.55
2023-10-02T13:22:36.412Z,23.56
2023-10-02T13:27:38.143Z,23.57
2023-10-02T13:32:41.291Z,23.47
2023-10-02T13:37:43.071Z,23.61
2023-10-02T13:42:44.649Z,23.62
2023-10-02T13:47:49.131Z,23.67
2023-10-02T13:52:50.746Z,23.78
2023-10-02T13:57:53.511Z,23.78
2023-10-02T14:02:56.593Z,23.77
2023-10-02T14:07:58.280Z,23.72
2023-10-02T14:12:59.874Z,23.79
2023-10-02T14:18:02.889Z,23.75
2023-10-02T14:23:05.093Z,23.79
2023-10-02T14:28:06.988Z,23.83
2023-10-02T14:33:09.987Z,23.78
2023-10-02T14:38:11.701Z,23.73
2023-10-02T14:43:13.258Z,23.71
2023-10-02T14:48:31.794Z,23.75
2023-10-02T14:53:38.168Z,23.82
2023-10-02T14:58:40.424Z,23.79
2023-10-02T15:03:43.407Z,23.69
2023-10-02T15:08:45.469Z,23.77
2023-10-02T15:13:47.218Z,23.65
2023-10-02T15:18:50.193Z,23.59
2023-10-02T15:23:51.660Z,23.59
2023-10-02T15:28:53.158Z,23.46
2023-10-02T15:33:56.695Z,23.46
2023-10-02T15:38:58.243Z,23.39
2023-10-02T15:43:59.908Z,23.33
2023-10-02T15:49:03.057Z,23.35
2023-10-02T15:54:05.044Z,23.35
2023-10-02T15:59:06.658Z,23.36
2023-10-02T16:04:09.678Z,22.93
2023-10-02T16:09:11.648Z,22.78
2023-10-02T16:14:13.348Z,22.64
2023-10-02T16:19:16.339Z,22.56
2023-10-02T16:24:17.900Z,22.44
2023-10-02T16:29:19.463Z,22.25
2023-10-02T16:34:22.341Z,22.10
2023-10-02T16:39:24.028Z,21.91
2023-10-02T16:44:25.682Z,21.75
2023-10-02T16:49:28.647Z,21.57
2023-10-02T16:54:30.240Z,21.42
2023-10-02T16:59:31.830Z,21.27
2023-10-02T17:04:34.804Z,21.24
2023-10-02T17:09:36.420Z,21.18
2023-10-02T17:14:38.054Z,21.10
2023-10-02T17:19:40.973Z,21.03
2023-10-02T17:24:43.616Z,21.01
2023-10-02T17:29:45.238Z,20.92
2023-10-02T17:34:50.228Z,20.83
2023-10-02T17:39:51.869Z,20.57
2023-10-02T17:44:53.498Z,20.44
2023-10-02T17:49:56.682Z,20.35
2023-10-02T17:54:58.323Z,20.25
2023-10-02T17:59:59.927Z,20.18
2023-10-02T18:05:03.066Z,20.17
2023-10-02T18:10:05.247Z,20.11
2023-10-02T18:15:09.204Z,19.99
2023-10-02T18:20:13.664Z,19.83
2023-10-02T18:25:17.018Z,19.83
2023-10-02T18:30:21.089Z,19.84
2023-10-02T18:35:24.085Z,19.84
2023-10-02T18:40:25.774Z,19.84
2023-10-02T18:45:27.349Z,19.76
2023-10-02T18:50:32.463Z,19.68
2023-10-02T18:55:34.098Z,19.63
2023-10-02T19:00:35.759Z,19.58
2023-10-02T19:05:38.872Z,19.54
2023-10-02T19:10:40.496Z,19.45
2023-10-02T19:15:42.127Z,19.40
2023-10-02T19:20:45.136Z,19.34
2023-10-02T19:25:47.122Z,19.28
2023-10-02T19:30:48.740Z,19.22
2023-10-02T19:35:51.739Z,19.13
2023-10-02T19:40:53.605Z,19.05
2023-10-02T19:45:55.369Z,19.04
2023-10-02T19:50:58.382Z,19.01
2023-10-02T19:55:59.992Z,18.99
2023-10-02T20:01:02.273Z,18.98
2023-10-02T20:06:08.433Z,18.92
2023-10-02T20:11:10.205Z,18.84
2023-10-02T20:16:11.982Z,18.79
2023-10-02T20:21:16.745Z,18.75
2023-10-02T20:26:18.430Z,18.69
2023-10-02T20:31:20.315Z,18.64
2023-10-02T20:36:23.280Z,18.55
2023-10-02T20:41:24.953Z,18.53
2023-10-02T20:46:26.775Z,18.50
2023-10-02T20:51:29.876Z,18.41
2023-10-02T20:56:32.159Z,18.36
2023-10-02T21:01:33.827Z,18.23
2023-10-02T21:06:37.091Z,18.23
2023-10-02T21:11:38.745Z,18.11
2023-10-02T21:16:40.369Z,18.11
2023-10-02T21:21:43.390Z,18.11
2023-10-02T21:26:45.182Z,18.02
2023-10-02T21:31:46.831Z,17.95
2023-10-02T21:36:49.796Z,17.95
2023-10-02T21:41:51.363Z,17.87
2023-10-02T21:46:53.079Z,17.93
2023-10-02T21:51:56.033Z,17.91
2023-10-02T21:56:57.684Z,17.87
2023-10-02T22:01:59.274Z,17.76
2023-10-02T22:07:02.300Z,17.74
2023-10-02T22:12:04.228Z,17.61
2023-10-02T22:17:06.823Z,17.59
2023-10-02T22:22:09.789Z,17.61
2023-10-02T22:27:11.455Z,17.58
2023-10-02T22:32:14.319Z,17.57
2023-10-02T22:37:17.319Z,17.56
2023-10-02T22:42:18.952Z,17.56
2023-10-02T22:47:20.566Z,17.51
2023-10-02T22:52:23.549Z,17.48
2023-10-02T22:57:25.111Z,17.49
2023-10-02T23:02:26.852Z,17.47
2023-10-02T23:07:29.949Z,17.46
2023-10-02T23:12:31.553Z,17.36
2023-10-02T23:17:33.126Z,17.29
2023-10-02T23:22:36.020Z,17.21
2023-10-02T23:27:37.589Z,17.16
2023-10-02T23:32:39.624Z,17.09
2023-10-02T23:37:42.576Z,17.04
2023-10-02T23:42:44.601Z,16.95
2023-10-02T23:47:46.836Z,16.93
2023-10-02T23:52:50.146Z,16.81
2023-10-02T23:57:51.888Z,16.78
